Latest Weather Observations for Moss Vale

IDN60801

Issued at 11:33 pm EDT Saturday 13 February 2016 (issued every 30 minutes, with the page automatically refreshed every 10 minutes)

About weather observations | Map of weather stations | Latest weather observations for NSW | Other Formats
Station Details ID: 068239 Name: MOSS VALE AWS Lat: -34.53 Lon: 150.42 Height: 678.4 m
Data from the previous 72 hours. | See also: Recent months at Moss Vale
Date/Time
EDT
Temp
°C
App
Temp
°C
Dew
Point
Rel
Hum
%
Delta-T
°C
Wind Press
QNH
hPa
Press
MSL
hPa
Rain
since 9 am
mm
Dir
 
Spd
km/h
Gust
km/h
Spd
kts
Gust
kts
13/11:30pm 19.5 21.0 18.0 91 1.0 ENE 7 11 4 6 1012.6 1009.6 0.0
13/11:00pm 19.8 21.0 18.3 91 1.0 NE 9 15 5 8 1013.0 1010.1 0.0
13/10:30pm 20.3 20.4 18.4 89 1.2 NNE 15 20 8 11 1013.2 1010.2 0.0
13/10:00pm 20.4 20.0 18.0 86 1.5 NE 17 22 9 12 1013.3 1010.3 0.0
13/09:30pm 20.7 18.7 17.3 81 2.1 NNE 24 32 13 17 1013.0 1010.1 0.0
13/09:00pm 21.4 18.9 17.2 77 2.7 NNE 26 32 14 17 1012.7 1009.7 0.0
13/08:30pm 22.3 20.8 16.8 71 3.5 NNE 20 28 11 15 1012.6 1009.6 0.0
13/08:00pm 22.4 20.0 13.7 58 5.2 NNE 19 20 10 11 1012.5 1009.5 0.0
13/07:30pm 24.4 20.9 13.3 50 6.7 N 24 32 13 17 1012.2 1009.2 0.0
13/07:00pm 24.9 20.8 12.8 47 7.2 NNE 26 35 14 19 1012.1 1009.1 0.0
13/06:30pm 25.7 21.4 12.2 43 8.0 NNE 26 35 14 19 1012.1 1009.1 0.0
13/06:00pm 26.0 21.9 13.8 47 7.4 NNE 28 33 15 18 1012.3 1009.3 0.0
13/05:30pm 26.2 23.4 15.3 51 6.8 NNE 24 32 13 17 1012.4 1009.4 0.0
13/05:00pm 26.9 24.7 16.8 54 6.5 NNE 24 32 13 17 1012.4 1009.4 0.0
13/04:30pm 26.3 23.2 16.5 54 6.2 NNE 28 35 15 19 1012.6 1009.6 0.0
13/04:00pm 26.4 23.6 16.3 53 6.4 NNE 26 32 14 17 1012.8 1009.9 0.0
13/03:30pm 26.7 24.2 17.2 56 6.1 NE 26 32 14 17 1013.3 1010.3 0.0
13/03:00pm 27.1 24.4 17.6 56 6.1 NNE 28 37 15 20 1013.6 1010.6 0.0
13/02:30pm 27.2 25.1 17.1 54 6.5 NE 24 30 13 16 1013.8 1010.8 0.0
13/02:00pm 27.9 26.8 17.4 52 6.8 N 19 24 10 13 1014.4 1011.5 0.0
13/01:30pm 27.1 25.8 14.8 47 7.6 NNE 15 24 8 13 1014.6 1011.7 0.0
13/01:00pm 27.7 27.6 16.0 49 7.4 NNE 11 20 6 11 1015.1 1012.1 0.0
13/12:30pm 27.0 27.7 16.0 51 6.9 NW 7 17 4 9 1015.5 1012.6 0.0
13/12:00pm 26.1 25.6 15.8 53 6.5 N 13 20 7 11 1015.8 1012.9 0.0
13/11:30am 25.7 25.5 16.8 58 5.7 NW 13 22 7 12 1016.1 1013.2 0.0
13/11:00am 24.8 24.4 16.2 58 5.4 NNW 13 19 7 10 1016.4 1013.4 0.0
13/10:30am 23.8 23.1 16.3 63 4.7 N 15 20 8 11 1016.4 1013.4 0.0
13/10:00am 22.8 21.7 16.4 67 4.0 N 17 22 9 12 1016.5 1013.5 0.0
13/09:30am 21.5 21.8 16.9 75 2.9 N 11 15 6 8 1016.6 1013.6 0.0
13/09:00am 20.9 21.5 18.7 87 1.4 NNW 13 20 7 11 1016.8 1013.9 0.0
13/08:30am 19.2 20.4 17.3 89 1.2 NNE 7 11 4 6 1016.6 1013.6 0.0
13/08:00am 18.0 19.2 17.4 96 0.4 NNE 7 9 4 5 1016.5 1013.5 0.0
13/07:52am 17.4 18.5 17.1 98 0.2 NNE 7 9 4 5 1016.5 1013.5 0.0
13/07:51am 17.3 18.6 17.0 98 0.2 NNE 6 9 3 5 1016.5 1013.5 0.0
13/07:30am 16.9 18.1 16.9 100 0.0 N 6 9 3 5 1016.5 1013.5 0.0
13/07:00am 16.2 16.9 16.2 100 0.0 NNE 7 9 4 5 1016.5 1013.5 0.0
13/06:30am 15.8 15.6 15.8 100 0.0 N 11 15 6 8 1016.1 1013.2 0.0
13/06:05am 16.1 16.4 16.1 100 0.0 N 9 15 5 8 1015.9 1013.0 0.0
13/06:00am 16.4 16.8 16.4 100 0.0 N 9 15 5 8 1016.0 1013.1 0.0
13/05:45am 16.4 16.8 16.4 100 0.0 N 9 11 5 6 1016.0 1013.1 0.0
13/05:37am 16.2 16.6 16.2 100 0.0 N 9 11 5 6 1016.0 1013.1 0.0
13/05:30am 16.3 16.7 16.3 100 0.0 N 9 11 5 6 1015.9 1013.0 0.0
13/05:00am 16.5 16.9 16.2 98 0.2 N 9 13 5 7 1015.9 1013.0 0.0
13/04:30am 16.8 16.5 16.5 98 0.2 N 13 17 7 9 1016.0 1013.1 0.0
13/04:00am 17.3 17.1 16.7 96 0.4 N 13 19 7 10 1016.1 1013.2 0.0
13/03:30am 17.5 16.7 17.0 97 0.3 N 17 20 9 11 1016.5 1013.5 0.0
13/03:00am 17.3 16.8 17.0 98 0.2 N 15 20 8 11 1016.6 1013.6 0.0
13/02:30am 17.3 16.7 16.7 96 0.4 N 15 20 8 11 1016.8 1013.9 0.0
13/02:00am 17.4 16.5 16.8 96 0.4 NNE 17 22 9 12 1016.8 1013.9 0.0
13/01:30am 18.1 16.9 17.6 97 0.3 NNE 20 32 11 17 1017.1 1014.2 0.0
13/01:00am 18.1 17.2 17.8 98 0.2 NNE 19 26 10 14 1017.4 1014.5 0.0
13/12:30am 18.2 17.8 18.0 99 0.1 NE 17 22 9 12 1017.5 1014.6 0.0
13/12:00am 18.1 17.0 17.8 98 0.2 NE 20 28 11 15 1017.6 1014.7 0.0
 
Date/Time
EDT
Temp
°C
App
Temp
°C
Dew
Point
Rel
Hum
%
Delta-T
°C
Wind Press
QNH
hPa
Press
MSL
hPa
Rain
since 9 am
mm
Dir
 
Spd
km/h
Gust
km/h
Spd
kts
Gust
kts
12/11:30pm 18.1 17.2 17.8 98 0.2 NNE 19 22 10 12 1018.0 1015.0 0.0
12/11:00pm 18.2 17.4 17.9 98 0.2 NNE 19 30 10 16 1018.1 1015.2 0.0
12/10:30pm 18.3 17.4 18.1 99 0.1 NE 20 30 11 16 1018.3 1015.4 0.0
12/10:04pm 18.0 16.3 18.0 100 0.0 NE 24 32 13 17 1018.2 1015.3 0.0
12/10:00pm 18.0 16.3 18.0 100 0.0 NE 24 32 13 17 1018.1 1015.2 0.0
12/09:30pm 17.6 17.7 17.4 99 0.1 NE 13 19 7 10 1018.2 1015.3 0.0
12/09:00pm 17.9 17.9 17.3 96 0.4 ENE 13 17 7 9 1018.0 1015.0 0.0
12/08:30pm 18.5 18.0 17.7 95 0.5 ENE 17 22 9 12 1017.7 1014.8 0.0
12/08:00pm 19.3 18.9 18.1 93 0.8 ENE 17 20 9 11 1017.4 1014.5 0.0
12/07:30pm 20.2 20.1 18.7 91 1.0 ENE 17 22 9 12 1017.1 1014.2 0.0
12/07:00pm 21.0 20.6 18.0 83 1.9 ENE 17 24 9 13 1016.9 1014.0 0.0
12/06:30pm 22.1 20.6 17.7 76 2.8 ENE 22 28 12 15 1016.5 1013.5 0.0
12/06:00pm 23.0 22.1 18.1 74 3.1 ENE 20 26 11 14 1016.6 1013.6 0.0
12/05:30pm 23.5 22.6 18.2 72 3.4 ENE 20 28 11 15 1016.5 1013.5 0.0
12/05:00pm 24.0 22.3 18.0 69 3.9 NE 24 33 13 18 1016.4 1013.4 0.0
12/04:30pm 24.9 22.0 15.2 54 6.0 NNE 24 30 13 16 1016.6 1013.6 0.0
12/04:00pm 24.9 22.5 13.8 50 6.7 NE 19 28 10 15 1016.7 1013.7 0.0
12/03:30pm 25.0 22.9 14.8 53 6.3 NNE 19 28 10 15 1017.0 1014.1 0.0
12/03:00pm 24.7 23.1 15.1 55 5.9 NNE 17 24 9 13 1017.3 1014.4 0.0
12/02:30pm 23.1 20.0 13.3 54 5.8 NNE 22 28 12 15 1017.5 1014.6 0.0
12/02:00pm 23.4 21.7 15.7 62 4.8 NNE 19 28 10 15 1017.9 1014.9 0.0
12/01:30pm 24.2 22.3 15.7 59 5.3 NNE 20 28 11 15 1018.1 1015.2 0.0
12/01:00pm 23.3 20.1 14.3 57 5.5 NNE 24 33 13 18 1018.2 1015.3 0.0
12/12:30pm 23.5 21.4 16.1 63 4.6 NE 22 32 12 17 1018.5 1015.6 0.0
12/12:00pm 22.4 21.2 16.0 67 4.0 NE 17 24 9 13 1018.9 1016.0 0.0
12/11:30am 22.8 20.6 15.9 65 4.3 NNE 22 28 12 15 1019.0 1016.1 0.0
12/11:00am 22.2 19.9 15.8 67 4.0 NNE 22 28 12 15 1019.2 1016.3 0.0
12/10:30am 20.8 18.3 15.1 70 3.5 NNE 22 30 12 16 1019.2 1016.3 0.0
12/10:00am 20.9 19.1 15.9 73 3.1 NNE 20 28 11 15 1019.1 1016.2 0.0
12/09:30am 21.0 20.1 16.8 77 2.6 NE 17 24 9 13 1019.3 1016.5 0.0
12/09:22am 20.4 19.0 16.6 79 2.4 NE 19 24 10 13 1019.5 1016.6 0.0
12/09:00am 20.2 21.3 18.0 87 1.4 NNW 9 15 5 8 1019.6 1016.7 0.0
12/08:49am 19.7 19.7 17.1 85 1.6 NE 13 20 7 11 1019.6 1016.7 0.0
12/08:30am 18.9 18.8 17.0 89 1.2 NNE 13 19 7 10 1019.3 1016.5 0.0
12/08:12am 18.7 19.0 17.0 90 1.1 NNE 11 15 6 8 1019.1 1016.2 0.0
12/08:00am 18.5 18.3 17.5 94 0.6 N 15 19 8 10 1018.9 1016.0 0.0
12/07:30am 18.2 19.4 18.2 100 0.0 NNE 9 13 5 7 1018.8 1015.9 0.0
12/07:00am 16.9 17.5 16.9 100 0.0 NE 9 13 5 7 1018.4 1015.5 0.0
12/06:30am 17.0 17.3 17.0 100 0.0 NNE 11 13 6 7 1018.2 1015.3 0.0
12/06:00am 17.0 16.9 17.0 100 0.0 NNE 13 15 7 8 1017.9 1014.9 0.0
12/05:35am 16.4 17.2 16.4 100 0.0 NE 7 13 4 7 1017.7 1014.8 0.0
12/05:30am 16.1 16.4 16.1 100 0.0 NE 9 13 5 7 1017.6 1014.7 0.0
12/05:00am 16.2 16.9 16.2 100 0.0 NNE 7 9 4 5 1017.4 1014.5 0.0
12/04:30am 16.8 17.7 16.6 99 0.1 NNE 7 13 4 7 1017.7 1014.8 0.0
12/04:15am 17.1 16.6 16.9 99 0.1 NNE 15 19 8 10 1017.5 1014.6 0.0
12/04:00am 17.5 17.6 17.5 100 0.0 NE 13 17 7 9 1017.4 1014.5 0.0
12/03:56am 17.5 17.6 17.5 100 0.0 NE 13 15 7 8 1017.5 1014.6 0.0
12/03:30am 17.5 17.6 17.5 100 0.0 NE 13 17 7 9 1017.5 1014.6 0.0
12/03:00am 17.5 17.6 17.5 100 0.0 NNE 13 17 7 9 1017.9 1014.9 0.0
12/02:51am 17.3 16.6 17.3 100 0.0 NNE 17 22 9 12 1017.9 1014.9 0.0
12/02:30am 17.7 17.2 17.7 100 0.0 NNE 17 22 9 12 1017.7 1014.8 0.0
12/02:06am 17.7 17.9 17.7 100 0.0 NE 13 22 7 12 1017.7 1014.8 0.0
12/02:00am 17.7 18.7 17.7 100 0.0 NE 9 13 5 7 1017.9 1014.9 0.0
12/01:42am 17.7 18.7 17.7 100 0.0 NE 9 13 5 7 1018.1 1015.2 0.0
12/01:30am 17.7 18.7 17.7 100 0.0 ENE 9 13 5 7 1018.2 1015.3 0.0
12/01:27am 17.7 19.1 17.7 100 0.0 ENE 7 13 4 7 1018.2 1015.3 0.0
12/01:00am 17.5 17.6 17.5 100 0.0 E 13 15 7 8 1018.2 1015.3 0.0
12/12:30am 17.7 18.9 17.4 98 0.2 NNE 7 11 4 6 1018.8 1015.9 0.0
12/12:27am 17.7 19.4 17.2 97 0.3 NNW 4 9 2 5 1018.8 1015.9 0.0
12/12:00am 17.8 19.1 17.5 98 0.2 NNW 7 9 4 5 1019.5 1016.6 0.0
 
Date/Time
EDT
Temp
°C
App
Temp
°C
Dew
Point
Rel
Hum
%
Delta-T
°C
Wind Press
QNH
hPa
Press
MSL
hPa
Rain
since 9 am
mm
Dir
 
Spd
km/h
Gust
km/h
Spd
kts
Gust
kts
11/11:30pm 17.6 17.6 17.3 98 0.2 NNE 13 19 7 10 1019.0 1016.1 0.0
11/11:16pm 17.7 17.8 17.5 99 0.1 NE 13 19 7 10 1019.1 1016.2 0.0
11/11:00pm 17.7 16.5 17.4 98 0.2 NE 20 26 11 14 1018.8 1015.9 0.0
11/10:36pm 17.7 17.1 17.5 99 0.1 NNE 17 19 9 10 1018.8 1015.9 0.0
11/10:30pm 17.7 17.5 17.5 99 0.1 NE 15 19 8 10 1018.9 1016.0 0.0
11/10:00pm 17.8 17.6 17.6 99 0.1 NNE 15 22 8 12 1019.1 1016.2 0.0
11/09:30pm 17.7 18.5 17.4 98 0.2 NE 9 13 5 7 1018.7 1015.8 0.0
11/09:25pm 17.6 18.0 17.3 98 0.2 NE 11 13 6 7 1018.7 1015.8 0.0
11/09:00pm 17.6 16.8 17.1 97 0.3 NE 17 22 9 12 1018.3 1015.4 0.0
11/08:30pm 18.2 17.5 17.4 95 0.5 NE 17 22 9 12 1018.2 1015.3 0.0
11/08:00pm 18.5 18.6 17.5 94 0.6 ENE 13 17 7 9 1018.1 1015.2 0.0
11/07:30pm 18.6 17.4 17.4 93 0.8 ENE 20 24 11 13 1017.3 1014.4 0.0
11/07:05pm 18.8 18.2 17.5 92 0.8 ENE 17 20 9 11 1017.4 1014.5 0.0
11/07:00pm 18.9 18.3 17.6 92 0.8 ENE 17 24 9 13 1017.3 1014.4 0.0
11/06:30pm 19.3 17.4 17.6 90 1.1 ENE 24 33 13 18 1016.8 1013.9 0.0
11/06:00pm 19.7 17.6 17.1 85 1.6 ENE 24 32 13 17 1016.1 1013.2 0.0
11/05:30pm 20.5 18.5 17.5 83 1.9 ENE 24 33 13 18 1016.0 1013.1 0.0
11/05:14pm 20.5 18.5 17.3 82 2.0 ENE 24 33 13 18 1016.4 1013.4 0.0
11/05:00pm 20.7 18.7 17.3 81 2.1 ENE 24 33 13 18 1016.5 1013.5 0.0
11/04:30pm 21.7 19.3 17.3 76 2.8 ENE 26 33 14 18 1015.8 1012.9 0.0
11/04:00pm 22.9 21.1 17.8 73 3.3 E 24 32 13 17 1015.9 1013.0 0.0
11/03:30pm 23.6 22.4 16.1 62 4.7 ENE 17 26 9 14 1016.0 1013.1 0.0
11/03:00pm 24.5 23.2 15.7 58 5.5 NE 17 26 9 14 1016.3 1013.3 0.0
11/02:30pm 24.5 22.4 15.1 55 5.8 NNE 20 24 11 13 1016.7 1013.7 0.0
11/02:00pm 23.8 21.7 15.3 59 5.2 NNE 20 28 11 15 1017.0 1014.1 0.0
11/01:30pm 23.6 21.8 16.1 62 4.7 NNE 20 30 11 16 1017.2 1014.3 0.0
11/01:00pm 23.3 21.7 15.1 60 5.0 NE 17 26 9 14 1017.2 1014.3 0.0
11/12:30pm 22.9 21.4 16.2 66 4.2 NNE 19 26 10 14 1017.5 1014.6 0.0
11/12:00pm 22.6 21.7 16.9 70 3.6 NNE 17 24 9 13 1017.7 1014.8 0.0
11/11:30am 21.6 20.1 15.4 68 3.8 NE 17 26 9 14 1018.2 1015.3 0.0
11/11:00am 21.3 20.2 16.3 73 3.1 NE 17 24 9 13 1018.2 1015.3 0.0
11/10:30am 20.5 19.2 15.9 75 2.8 NE 17 24 9 13 1018.1 1015.2 0.0
11/10:00am 20.6 19.7 16.8 79 2.4 NNE 17 22 9 12 1018.1 1015.2 0.0
11/09:30am 19.9 18.8 15.3 75 2.8 NE 15 19 8 10 1018.1 1015.2 0.0
11/09:00am 17.5 18.2 16.0 91 0.9 ENE 7 11 4 6 1018.1 1015.2 0.0
11/08:53am 17.5 18.9 17.3 99 0.1 E 6 11 3 6 1018.1 1015.2 0.0
11/08:41am 17.1 18.4 17.1 100 0.0 E 6 9 3 5 1018.0 1015.0 0.0
11/08:30am 16.7 17.8 16.7 100 0.0 E 6 9 3 5 1018.0 1015.0 0.0
11/08:00am 16.1 16.8 16.1 100 0.0 E 7 9 4 5 1017.7 1014.8 0.0
11/07:30am 15.3 15.7 15.3 100 0.0 SE 7 9 4 5 1017.3 1014.4 0.0
11/07:00am 15.1 15.1 15.1 100 0.0 SE 9 9 5 5 1017.0 1014.1 0.0
11/06:58am 15.1 15.4 15.1 100 0.0 SSE 7 9 4 5 1017.0 1014.1 0.0
11/06:30am 14.9 16.5 14.9 100 0.0 CALM 0 6 0 3 1016.5 1013.5 0.0
11/06:00am 15.3 15.9 15.3 100 0.0 E 6 7 3 4 1016.0 1013.1 0.0
11/05:59am 15.3 15.9 15.3 100 0.0 ENE 6 7 3 4 1015.9 1013.0 0.0
11/05:34am 15.9 16.5 15.9 100 0.0 NE 7 9 4 5 1015.7 1012.8 0.0
11/05:30am 16.0 16.7 16.0 100 0.0 NE 7 9 4 5 1015.7 1012.8 0.0
11/05:29am 16.0 16.7 16.0 100 0.0 NE 7 9 4 5 1015.7 1012.8 0.0
11/05:00am 16.4 17.4 16.4 100 0.0 NE 6 9 3 5 1015.7 1012.8 0.0
11/04:30am 16.5 18.7 16.5 100 0.0 CALM 0 0 0 0 1015.7 1012.8 0.0
11/04:00am 16.5 17.6 16.5 100 0.0 E 6 9 3 5 1015.7 1012.8 0.0
11/03:30am 16.4 16.8 16.4 100 0.0 ENE 9 17 5 9 1015.6 1012.7 0.0
11/03:00am 16.4 16.1 16.4 100 0.0 NE 13 17 7 9 1015.5 1012.6 0.0
11/02:30am 16.6 16.7 16.6 100 0.0 NE 11 13 6 7 1015.9 1013.0 0.0
11/02:00am 16.9 17.2 16.9 100 0.0 NNE 11 13 6 7 1016.3 1013.3 0.0
11/01:30am 17.1 18.2 17.1 100 0.0 NE 7 11 4 6 1016.3 1013.3 0.0
11/01:22am 17.1 18.2 17.1 100 0.0 NE 7 9 4 5 1016.3 1013.3 0.0
11/01:10am 17.1 18.2 17.1 100 0.0 NE 7 11 4 6 1016.5 1013.5 0.0
11/01:00am 17.1 18.4 17.1 100 0.0 E 6 9 3 5 1016.5 1013.5 0.0
11/12:30am 17.1 17.4 17.1 100 0.0 NE 11 15 6 8 1016.7 1013.7 0.0
11/12:16am 16.9 16.4 16.9 100 0.0 NE 15 22 8 12 1016.6 1013.6 0.0
11/12:13am 17.0 16.2 17.0 100 0.0 NE 17 22 9 12 1016.6 1013.6 0.0
11/12:00am 16.7 15.7 16.7 100 0.0 NE 17 20 9 11 1016.4 1013.4 0.0

Other Formats:

Comma delimited format used in spreadsheet applications
http://www.bom.gov.au/fwo/IDN60801/IDN60801.94746.axf

JavaScript Object Notation format (JSON) in row-major order
http://www.bom.gov.au/fwo/IDN60801/IDN60801.94746.json